createdAt,value
2018-03-19T00:01:27.263Z,16.30
2018-03-19T00:03:54.723Z,15.05
2018-03-19T00:06:22.197Z,17.40
2018-03-19T00:08:49.662Z,16.45
2018-03-19T00:11:17.150Z,18.05
2018-03-19T00:13:44.599Z,15.00
2018-03-19T00:16:12.076Z,15.48
2018-03-19T00:18:39.532Z,17.55
2018-03-19T00:21:06.987Z,18.87
2018-03-19T00:23:34.449Z,18.00
2018-03-19T00:26:01.915Z,16.90
2018-03-19T00:28:29.373Z,17.70
2018-03-19T00:30:56.834Z,18.50
2018-03-19T00:33:24.291Z,17.55
2018-03-19T00:35:51.777Z,17.92
2018-03-19T00:38:19.683Z,18.65
2018-03-19T00:40:47.137Z,13.82
2018-03-19T00:43:14.598Z,18.40
2018-03-19T00:45:42.057Z,16.40
2018-03-19T00:48:09.521Z,18.98
2018-03-19T00:50:36.985Z,19.50
2018-03-19T00:53:04.446Z,18.95
2018-03-19T00:55:31.912Z,18.10
2018-03-19T00:57:59.365Z,17.83
2018-03-19T01:00:26.824Z,16.12
2018-03-19T01:02:55.057Z,17.67
2018-03-19T01:05:23.291Z,15.98
2018-03-19T01:07:50.768Z,19.87
2018-03-19T01:10:18.217Z,19.60
2018-03-19T01:12:45.691Z,22.20
2018-03-19T01:15:13.906Z,16.87
2018-03-19T01:17:41.374Z,20.73
2018-03-19T01:20:08.846Z,17.00
2018-03-19T01:22:36.312Z,16.37
2018-03-19T01:25:03.765Z,19.27
2018-03-19T01:27:31.237Z,19.70
2018-03-19T01:29:59.453Z,19.23
2018-03-19T01:32:26.922Z,18.60
2018-03-19T01:34:54.385Z,19.45
2018-03-19T01:37:21.837Z,16.55
2018-03-19T01:39:49.291Z,17.35
2018-03-19T01:42:16.747Z,20.65
2018-03-19T01:44:44.204Z,21.02
2018-03-19T01:47:11.654Z,21.08
2018-03-19T01:49:39.120Z,21.00
2018-03-19T01:52:06.574Z,19.67
2018-03-19T01:54:34.022Z,18.70
2018-03-19T01:57:01.476Z,17.05
2018-03-19T01:59:28.972Z,15.75
2018-03-19T02:01:56.814Z,13.60
2018-03-19T02:04:25.031Z,16.98
2018-03-19T02:06:52.889Z,14.87
2018-03-19T02:09:20.344Z,21.70
2018-03-19T02:11:47.805Z,19.30
2018-03-19T02:14:15.264Z,21.20
2018-03-19T02:16:42.727Z,21.58
2018-03-19T02:19:10.172Z,18.90
2018-03-19T02:21:37.641Z,19.50
2018-03-19T02:24:05.118Z,18.33
2018-03-19T02:26:32.557Z,20.25
2018-03-19T02:29:00.010Z,21.20
2018-03-19T02:31:27.479Z,20.40
2018-03-19T02:33:55.697Z,21.10
2018-03-19T02:36:23.161Z,20.65
2018-03-19T02:38:50.618Z,19.48
2018-03-19T02:41:18.085Z,19.30
2018-03-19T02:43:45.537Z,21.05
2018-03-19T02:46:13.023Z,21.75
2018-03-19T02:48:40.476Z,19.87
2018-03-19T02:51:07.931Z,21.98
2018-03-19T02:53:35.394Z,20.88
2018-03-19T02:56:02.886Z,22.42
2018-03-19T02:58:31.109Z,19.60
2018-03-19T03:00:58.562Z,19.30
2018-03-19T03:03:26.018Z,17.52
2018-03-19T03:05:53.874Z,19.00
2018-03-19T03:08:22.101Z,19.50
2018-03-19T03:10:50.333Z,21.17
2018-03-19T03:13:17.793Z,18.90
2018-03-19T03:15:45.244Z,18.50
2018-03-19T03:18:12.715Z,20.05
2018-03-19T03:20:40.174Z,22.42
2018-03-19T03:23:07.645Z,20.05
2018-03-19T03:25:35.105Z,20.85
2018-03-19T03:28:02.577Z,19.20
2018-03-19T03:30:30.798Z,20.62
2018-03-19T03:32:58.277Z,20.20
2018-03-19T03:35:25.745Z,22.67
2018-03-19T03:37:53.206Z,19.08
2018-03-19T03:40:20.664Z,21.77
2018-03-19T03:42:48.117Z,20.40
2018-03-19T03:45:15.582Z,18.58
2018-03-19T03:47:43.038Z,20.60
2018-03-19T03:50:10.504Z,20.77
2018-03-19T03:52:37.958Z,20.23
2018-03-19T03:55:06.165Z,20.37
2018-03-19T03:57:33.654Z,20.37
2018-03-19T04:00:01.109Z,21.50
2018-03-19T04:02:28.574Z,16.12
2018-03-19T04:04:56.796Z,15.27
2018-03-19T04:07:24.670Z,18.62
2018-03-19T04:09:52.124Z,17.85
2018-03-19T04:12:19.575Z,19.23
2018-03-19T04:14:47.038Z,18.65
2018-03-19T04:17:14.495Z,18.90
2018-03-19T04:19:41.976Z,18.90
2018-03-19T04:22:09.446Z,18.50
2018-03-19T04:24:36.899Z,19.00
2018-03-19T04:27:04.368Z,19.83
2018-03-19T04:29:31.812Z,19.35
2018-03-19T04:32:00.054Z,17.87
2018-03-19T04:34:27.506Z,17.35
2018-03-19T04:36:54.965Z,18.02
2018-03-19T04:39:22.421Z,19.45
2018-03-19T04:41:49.881Z,18.98
2018-03-19T04:44:17.339Z,20.60
2018-03-19T04:46:44.788Z,17.50
2018-03-19T04:49:12.258Z,18.73
2018-03-19T04:51:39.719Z,18.70
2018-03-19T04:54:07.164Z,19.52
2018-03-19T04:56:34.619Z,19.45
2018-03-19T04:59:02.078Z,17.90
2018-03-19T05:01:29.539Z,16.70
2018-03-19T05:03:56.990Z,17.98
2018-03-19T05:06:24.467Z,15.50
2018-03-19T05:08:51.929Z,18.10
2018-03-19T05:11:19.390Z,17.33
2018-03-19T05:13:46.853Z,17.33
2018-03-19T05:16:14.313Z,20.23
2018-03-19T05:18:41.773Z,18.75
2018-03-19T05:21:09.222Z,17.58
2018-03-19T05:23:36.697Z,19.95
2018-03-19T05:26:04.153Z,20.98
2018-03-19T05:28:37.387Z,18.73
2018-03-19T05:31:04.858Z,17.90
2018-03-19T05:33:32.325Z,19.33
2018-03-19T05:35:59.790Z,18.10
2018-03-19T05:38:27.250Z,18.05
2018-03-19T05:40:54.721Z,18.52
2018-03-19T05:43:22.184Z,18.23
2018-03-19T05:45:50.408Z,17.90
2018-03-19T05:48:17.865Z,17.52
2018-03-19T05:50:45.326Z,16.67
2018-03-19T05:53:12.809Z,16.60
2018-03-19T05:55:40.274Z,18.50
2018-03-19T05:58:07.730Z,18.37
2018-03-19T06:00:35.188Z,17.30
2018-03-19T06:03:02.653Z,18.65
2018-03-19T06:05:30.121Z,16.42
2018-03-19T06:07:57.583Z,15.32
2018-03-19T06:10:25.083Z,16.90
2018-03-19T06:12:52.905Z,18.20
2018-03-19T06:15:20.370Z,16.25
2018-03-19T06:17:47.830Z,16.95
2018-03-19T06:20:15.280Z,18.12
2018-03-19T06:22:42.737Z,19.70
2018-03-19T06:25:10.206Z,17.25
2018-03-19T06:27:38.457Z,16.75
2018-03-19T06:30:05.915Z,17.48
2018-03-19T06:32:33.369Z,18.60
2018-03-19T06:35:00.829Z,16.15
2018-03-19T06:37:28.297Z,18.80
2018-03-19T06:39:55.754Z,18.70
2018-03-19T06:42:23.210Z,18.40
2018-03-19T06:44:50.663Z,20.48
2018-03-19T06:47:19.639Z,20.92
2018-03-19T06:49:47.109Z,17.02
2018-03-19T06:52:14.552Z,26.17
2018-03-19T06:54:42.000Z,21.17
2018-03-19T06:57:09.464Z,18.62
2018-03-19T06:59:36.925Z,18.42
2018-03-19T07:02:04.385Z,17.30
2018-03-19T07:04:31.842Z,16.67
2018-03-19T07:06:59.302Z,16.35
2018-03-19T07:09:26.774Z,16.70
2018-03-19T07:11:54.229Z,16.87
2018-03-19T07:14:22.082Z,16.20
2018-03-19T07:16:49.545Z,18.40
2018-03-19T07:19:17.008Z,15.25
2018-03-19T07:21:44.478Z,19.67
2018-03-19T07:24:11.945Z,17.48
2018-03-19T07:26:40.171Z,20.52
2018-03-19T07:29:07.625Z,17.73
2018-03-19T07:31:35.186Z,19.15
2018-03-19T07:34:02.642Z,19.00
2018-03-19T07:36:30.101Z,19.80
2018-03-19T07:38:57.565Z,18.20
2018-03-19T07:41:25.021Z,16.62
2018-03-19T07:43:52.489Z,18.02
2018-03-19T07:46:19.933Z,18.65
2018-03-19T07:48:47.394Z,18.27
2018-03-19T07:51:14.854Z,17.35
2018-03-19T07:53:42.305Z,17.50
2018-03-19T07:56:09.784Z,17.73
2018-03-19T07:58:37.230Z,17.00
2018-03-19T08:01:04.684Z,17.20
2018-03-19T08:03:32.139Z,16.37
2018-03-19T08:05:59.597Z,16.80
2018-03-19T08:08:27.066Z,17.17
2018-03-19T08:10:54.516Z,18.42
2018-03-19T08:13:21.991Z,20.65
2018-03-19T08:15:50.225Z,18.23
2018-03-19T08:18:17.716Z,18.12
2018-03-19T08:20:45.177Z,16.73
2018-03-19T08:23:12.649Z,19.10
2018-03-19T08:25:40.895Z,18.23
2018-03-19T08:28:08.345Z,18.37
2018-03-19T08:30:35.858Z,19.85
2018-03-19T08:33:03.262Z,20.08
2018-03-19T08:35:30.735Z,19.73
2018-03-19T08:37:58.183Z,18.92
2018-03-19T08:40:25.639Z,19.70
2018-03-19T08:42:53.094Z,20.90
2018-03-19T08:45:20.537Z,19.60
2018-03-19T08:47:47.982Z,18.40
2018-03-19T08:50:15.445Z,20.45
2018-03-19T08:52:42.918Z,21.92
2018-03-19T08:55:10.365Z,18.48
2018-03-19T08:57:37.837Z,20.40
2018-03-19T09:00:05.314Z,20.65
2018-03-19T09:02:33.545Z,18.65
2018-03-19T09:05:01.006Z,18.62
2018-03-19T09:07:28.468Z,13.98
2018-03-19T09:09:56.327Z,20.08
2018-03-19T09:12:23.778Z,20.70
2018-03-19T09:14:51.246Z,21.62
2018-03-19T09:17:18.694Z,19.35
2018-03-19T09:19:46.179Z,21.27
2018-03-19T09:22:13.597Z,20.27
2018-03-19T09:24:41.067Z,20.88
2018-03-19T09:27:08.529Z,20.33
2018-03-19T09:29:35.992Z,18.65
2018-03-19T09:32:03.461Z,22.05
2018-03-19T09:34:30.919Z,20.52
2018-03-19T09:36:58.855Z,21.62
2018-03-19T09:39:26.317Z,19.60
2018-03-19T09:41:53.772Z,21.48
2018-03-19T09:44:21.223Z,20.15
2018-03-19T09:46:48.713Z,20.15
2018-03-19T09:49:16.179Z,19.08
2018-03-19T09:51:43.627Z,22.27
2018-03-19T09:54:11.076Z,21.73
2018-03-19T09:56:38.517Z,21.52
2018-03-19T09:59:05.988Z,20.58
2018-03-19T10:01:33.451Z,20.12
2018-03-19T10:04:00.902Z,18.35
2018-03-19T10:06:28.349Z,18.37
2018-03-19T10:08:55.829Z,17.75
2018-03-19T10:11:24.049Z,19.10
2018-03-19T10:13:51.922Z,20.20
2018-03-19T10:16:19.422Z,19.92
2018-03-19T10:18:47.606Z,20.27
2018-03-19T10:21:15.823Z,19.60
2018-03-19T10:23:43.281Z,21.83
2018-03-19T10:26:10.738Z,19.73
2018-03-19T10:28:38.193Z,21.75
2018-03-19T10:31:05.652Z,19.27
2018-03-19T10:33:33.110Z,19.87
2018-03-19T10:36:00.575Z,21.20
2018-03-19T10:38:28.009Z,20.05
2018-03-19T10:40:55.453Z,19.62
2018-03-19T10:43:22.912Z,19.87
2018-03-19T10:45:50.414Z,20.17
2018-03-19T10:48:18.590Z,20.62
2018-03-19T10:50:46.050Z,19.02
2018-03-19T10:53:14.275Z,19.50
2018-03-19T10:55:41.724Z,19.80
2018-03-19T10:58:09.945Z,21.65
2018-03-19T11:00:37.395Z,19.27
2018-03-19T11:03:06.681Z,19.73
2018-03-19T11:05:39.910Z,18.10
2018-03-19T11:08:08.171Z,19.75
2018-03-19T11:10:35.627Z,18.65
2018-03-19T11:13:03.493Z,19.30
2018-03-19T11:15:31.776Z,18.55
2018-03-19T11:17:59.228Z,18.52
2018-03-19T11:20:26.694Z,18.67
2018-03-19T11:22:54.158Z,19.48
2018-03-19T11:25:21.621Z,21.02
2018-03-19T11:27:49.069Z,18.73
2018-03-19T11:30:16.537Z,20.67
2018-03-19T11:32:43.993Z,19.50
2018-03-19T11:35:11.446Z,19.17
2018-03-19T11:37:38.900Z,18.95
2018-03-19T11:40:06.370Z,19.60
2018-03-19T11:42:33.814Z,18.55
2018-03-19T11:45:01.261Z,19.77
2018-03-19T11:47:28.717Z,18.80
2018-03-19T11:49:56.180Z,20.00
2018-03-19T11:52:23.634Z,20.77
2018-03-19T11:54:51.098Z,20.27
2018-03-19T11:57:18.597Z,21.42
2018-03-19T11:59:46.053Z,19.95
2018-03-19T12:02:13.504Z,20.40
2018-03-19T12:04:40.965Z,19.37
2018-03-19T12:07:08.413Z,19.85
2018-03-19T12:09:36.271Z,19.33
2018-03-19T12:12:04.514Z,20.52
2018-03-19T12:14:32.754Z,19.25
2018-03-19T12:17:00.201Z,20.20
2018-03-19T12:19:27.664Z,21.20
2018-03-19T12:21:55.869Z,19.45
2018-03-19T12:24:23.329Z,20.23
2018-03-19T12:26:50.822Z,20.88
2018-03-19T12:29:18.230Z,22.15
2018-03-19T12:31:46.442Z,20.90
2018-03-19T12:34:13.901Z,19.62
2018-03-19T12:36:41.354Z,20.70
2018-03-19T12:39:08.800Z,21.05
2018-03-19T12:41:36.258Z,20.05
2018-03-19T12:44:03.706Z,19.83
2018-03-19T12:46:31.174Z,21.87
2018-03-19T12:48:58.626Z,21.17
2018-03-19T12:51:31.114Z,21.17
2018-03-19T12:53:58.566Z,20.73
2018-03-19T12:56:26.022Z,20.20
2018-03-19T12:58:53.478Z,21.45
2018-03-19T13:01:20.922Z,21.62
2018-03-19T13:03:48.366Z,19.92
2018-03-19T13:06:15.821Z,19.85
2018-03-19T13:08:43.283Z,20.05
2018-03-19T13:11:10.742Z,20.25
2018-03-19T13:13:38.953Z,20.83
2018-03-19T13:16:07.182Z,18.27
2018-03-19T13:18:34.627Z,24.85
2018-03-19T13:21:02.091Z,20.00
2018-03-19T13:23:29.549Z,21.00
2018-03-19T13:25:57.777Z,20.45
2018-03-19T13:28:25.993Z,21.55
2018-03-19T13:30:53.446Z,19.48
2018-03-19T13:33:20.889Z,19.92
2018-03-19T13:35:48.355Z,21.15
2018-03-19T13:38:15.808Z,20.85
2018-03-19T13:40:43.264Z,21.83
2018-03-19T13:43:10.710Z,19.67
2018-03-19T13:45:38.175Z,22.35
2018-03-19T13:48:05.651Z,22.65
2018-03-19T13:50:33.117Z,23.40
2018-03-19T13:53:00.565Z,22.85
2018-03-19T13:55:28.040Z,27.50
2018-03-19T13:57:55.497Z,24.37
2018-03-19T14:00:22.958Z,22.52
2018-03-19T14:02:50.418Z,20.48
2018-03-19T14:05:17.882Z,25.55
2018-03-19T14:07:45.334Z,22.25
2018-03-19T14:10:12.798Z,20.52
2018-03-19T14:12:40.275Z,22.83
2018-03-19T14:15:08.489Z,24.58
2018-03-19T14:17:35.951Z,23.83
2018-03-19T14:20:03.812Z,23.48
2018-03-19T14:22:31.264Z,25.05
2018-03-19T14:24:58.715Z,24.23
2018-03-19T14:27:26.168Z,25.00
2018-03-19T14:29:53.610Z,26.20
2018-03-19T14:32:21.068Z,26.45
2018-03-19T14:34:48.530Z,24.23
2018-03-19T14:37:15.986Z,23.67
2018-03-19T14:39:43.443Z,23.08
2018-03-19T14:42:10.897Z,21.65
2018-03-19T14:44:38.353Z,22.05
2018-03-19T14:47:05.801Z,20.10
2018-03-19T14:49:34.013Z,21.52
2018-03-19T14:52:01.470Z,22.95
2018-03-19T14:54:28.967Z,23.25
2018-03-19T14:56:56.397Z,23.65
2018-03-19T14:59:23.845Z,20.30
2018-03-19T15:01:51.306Z,21.15
2018-03-19T15:04:18.774Z,22.27
2018-03-19T15:06:46.235Z,22.15
2018-03-19T15:09:13.683Z,19.95
2018-03-19T15:11:41.133Z,17.80
2018-03-19T15:14:08.599Z,22.62
2018-03-19T15:16:36.062Z,20.62
2018-03-19T15:19:03.515Z,20.65
2018-03-19T15:21:30.973Z,19.75
2018-03-19T15:23:58.432Z,20.00
2018-03-19T15:26:25.898Z,20.02
2018-03-19T15:28:53.352Z,20.42
2018-03-19T15:31:20.854Z,21.05
2018-03-19T15:33:48.282Z,21.17
2018-03-19T15:36:16.512Z,20.00
2018-03-19T15:38:43.957Z,20.37
2018-03-19T15:41:11.439Z,20.73
2018-03-19T15:43:38.886Z,19.80
2018-03-19T15:46:06.359Z,23.95
2018-03-19T15:48:33.809Z,21.75
2018-03-19T15:51:01.261Z,21.67
2018-03-19T15:53:28.722Z,21.85
2018-03-19T15:55:56.173Z,21.00
2018-03-19T15:58:23.644Z,21.98
2018-03-19T16:00:51.103Z,22.98
2018-03-19T16:03:18.559Z,22.48
2018-03-19T16:05:46.010Z,22.75
2018-03-19T16:08:13.460Z,23.08
2018-03-19T16:10:40.925Z,21.20
2018-03-19T16:13:08.388Z,19.98
2018-03-19T16:15:35.846Z,19.10
2018-03-19T16:18:03.306Z,18.58
2018-03-19T16:20:30.759Z,20.52
2018-03-19T16:22:58.209Z,20.35
2018-03-19T16:25:25.657Z,22.55
2018-03-19T16:27:53.118Z,22.40
2018-03-19T16:30:20.560Z,26.42
2018-03-19T16:32:48.017Z,24.70
2018-03-19T16:35:16.310Z,25.17
2018-03-19T16:37:43.745Z,25.48
2018-03-19T16:40:11.195Z,24.58
2018-03-19T16:42:38.648Z,25.12
2018-03-19T16:45:06.093Z,24.00
2018-03-19T16:47:33.553Z,26.40
2018-03-19T16:50:01.004Z,26.37
2018-03-19T16:52:28.470Z,25.50
2018-03-19T16:54:55.943Z,26.02
2018-03-19T16:57:23.388Z,26.42
2018-03-19T16:59:50.836Z,27.75
2018-03-19T17:02:18.294Z,26.67
2018-03-19T17:04:45.741Z,26.40
2018-03-19T17:07:13.207Z,26.37
2018-03-19T17:09:40.657Z,25.77
2018-03-19T17:12:08.109Z,24.65
2018-03-19T17:14:35.565Z,24.95
2018-03-19T17:17:03.023Z,23.60
2018-03-19T17:19:31.239Z,24.90
2018-03-19T17:21:58.694Z,28.08
2018-03-19T17:24:26.141Z,27.55
2018-03-19T17:26:53.594Z,27.90
2018-03-19T17:29:21.044Z,29.45
2018-03-19T17:31:48.506Z,26.83
2018-03-19T17:34:15.953Z,25.15
2018-03-19T17:36:43.410Z,29.73
2018-03-19T17:39:10.876Z,30.05
2018-03-19T17:41:38.404Z,29.20
2018-03-19T17:44:05.788Z,28.15
2018-03-19T17:46:33.241Z,29.80
2018-03-19T17:49:00.686Z,30.42
2018-03-19T17:51:28.146Z,32.67
2018-03-19T17:53:55.584Z,31.15
2018-03-19T17:56:23.811Z,31.65
2018-03-19T17:58:51.258Z,30.25
2018-03-19T18:01:18.713Z,30.30
2018-03-19T18:03:46.174Z,30.10
2018-03-19T18:06:13.617Z,30.05
2018-03-19T18:08:41.068Z,30.98
2018-03-19T18:11:08.525Z,30.80
2018-03-19T18:13:35.999Z,31.52
2018-03-19T18:16:03.432Z,29.70
2018-03-19T18:18:31.653Z,28.98
2018-03-19T18:21:00.607Z,30.17
2018-03-19T18:23:28.067Z,29.33
2018-03-19T18:25:55.598Z,31.67
2018-03-19T18:28:23.286Z,30.58
2018-03-19T18:30:50.744Z,31.62
2018-03-19T18:33:18.203Z,32.85
2018-03-19T18:35:45.657Z,29.63
2018-03-19T18:38:13.110Z,32.15
2018-03-19T18:40:40.557Z,31.52
2018-03-19T18:43:08.395Z,32.40
2018-03-19T18:45:36.605Z,30.12
2018-03-19T18:48:04.074Z,28.17
2018-03-19T18:50:31.521Z,31.48
2018-03-19T18:52:58.986Z,32.50
2018-03-19T18:55:26.446Z,31.85
2018-03-19T18:57:53.898Z,31.92
2018-03-19T19:00:21.360Z,31.40
2018-03-19T19:02:48.855Z,30.30
2018-03-19T19:05:16.261Z,31.05
2018-03-19T19:07:43.705Z,32.85
2018-03-19T19:10:11.154Z,31.40
2018-03-19T19:12:38.606Z,32.28
2018-03-19T19:15:06.827Z,31.27
2018-03-19T19:17:34.286Z,30.33
2018-03-19T19:20:01.733Z,29.35
2018-03-19T19:22:29.589Z,30.15
2018-03-19T19:24:57.512Z,31.92
2018-03-19T19:27:24.981Z,33.70
2018-03-19T19:29:53.201Z,33.17
2018-03-19T19:32:20.660Z,34.95
2018-03-19T19:34:48.116Z,34.72
2018-03-19T19:37:15.568Z,31.50
2018-03-19T19:39:43.019Z,35.65
2018-03-19T19:42:10.477Z,34.47
2018-03-19T19:44:37.990Z,35.53
2018-03-19T19:47:06.216Z,37.85
2018-03-19T19:49:33.675Z,35.30
2018-03-19T19:52:01.122Z,35.00
2018-03-19T19:54:28.589Z,33.70
2018-03-19T19:56:56.045Z,34.42
2018-03-19T19:59:23.504Z,35.45
2018-03-19T20:01:50.962Z,33.72
2018-03-19T20:04:18.415Z,36.00
2018-03-19T20:06:46.630Z,33.15
2018-03-19T20:09:14.868Z,36.50
2018-03-19T20:11:42.400Z,37.05
2018-03-19T20:14:09.891Z,34.55
2018-03-19T20:16:37.417Z,32.58
2018-03-19T20:19:04.942Z,34.30
2018-03-19T20:21:32.410Z,31.02
2018-03-19T20:24:00.628Z,35.38
2018-03-19T20:26:28.866Z,36.38
2018-03-19T20:28:56.720Z,37.08
2018-03-19T20:31:24.948Z,37.78
2018-03-19T20:33:52.419Z,36.00
2018-03-19T20:36:19.865Z,37.33
2018-03-19T20:38:47.335Z,37.40
2018-03-19T20:41:14.801Z,36.45
2018-03-19T20:43:42.262Z,37.53
2018-03-19T20:46:09.708Z,35.70
2018-03-19T20:48:37.161Z,34.05
2018-03-19T20:51:04.602Z,33.13
2018-03-19T20:53:32.052Z,32.83
2018-03-19T20:55:59.510Z,31.42
2018-03-19T20:58:26.962Z,32.25
2018-03-19T21:00:54.432Z,31.48
2018-03-19T21:03:21.884Z,32.25
2018-03-19T21:05:49.347Z,33.03
2018-03-19T21:08:16.799Z,32.95
2018-03-19T21:10:44.261Z,35.50
2018-03-19T21:13:12.056Z,34.40
2018-03-19T21:15:40.279Z,37.35
2018-03-19T21:18:07.742Z,33.92
2018-03-19T21:20:35.195Z,33.38
2018-03-19T21:23:03.406Z,29.60
2018-03-19T21:25:31.249Z,30.40
2018-03-19T21:27:59.493Z,34.97
2018-03-19T21:30:26.942Z,34.20
2018-03-19T21:32:54.396Z,36.65
2018-03-19T21:35:21.853Z,34.75
2018-03-19T21:37:49.318Z,36.33
2018-03-19T21:40:16.773Z,31.83
2018-03-19T21:42:44.236Z,34.03
2018-03-19T21:45:11.688Z,35.05
2018-03-19T21:47:39.153Z,33.63
2018-03-19T21:50:06.617Z,35.10
2018-03-19T21:52:34.093Z,36.03
2018-03-19T21:55:01.541Z,37.35
2018-03-19T21:57:29.003Z,38.72
2018-03-19T21:59:56.457Z,36.53
2018-03-19T22:02:23.915Z,37.90
2018-03-19T22:04:51.362Z,39.85
2018-03-19T22:07:18.822Z,38.85
2018-03-19T22:09:46.273Z,35.92
2018-03-19T22:12:13.737Z,35.40
2018-03-19T22:14:41.191Z,37.70
2018-03-19T22:17:08.667Z,35.03
2018-03-19T22:19:36.121Z,35.20
2018-03-19T22:22:03.578Z,35.70
2018-03-19T22:24:31.070Z,31.92
2018-03-19T22:26:59.293Z,35.90
2018-03-19T22:29:27.140Z,32.00
2018-03-19T22:31:54.597Z,33.10
2018-03-19T22:34:22.066Z,33.03
2018-03-19T22:36:49.529Z,35.55
2018-03-19T22:39:17.288Z,33.38
2018-03-19T22:41:44.789Z,30.12
2018-03-19T22:44:13.064Z,31.92
2018-03-19T22:46:40.525Z,31.60
2018-03-19T22:49:07.976Z,28.90
2018-03-19T22:51:35.429Z,32.03
2018-03-19T22:54:02.886Z,30.88
2018-03-19T22:56:30.631Z,29.73
2018-03-19T23:01:49.457Z,29.20
2018-03-19T23:04:29.518Z,29.73
2018-03-19T23:06:57.011Z,26.30
2018-03-19T23:09:24.466Z,29.48
2018-03-19T23:11:51.913Z,27.00
2018-03-19T23:14:19.369Z,29.77
2018-03-19T23:16:46.820Z,25.58
2018-03-19T23:19:14.712Z,24.12
2018-03-19T23:21:42.166Z,26.10
2018-03-19T23:24:09.646Z,26.87
2018-03-19T23:26:37.099Z,27.37
2018-03-19T23:29:04.562Z,29.17
2018-03-19T23:31:32.039Z,28.25
2018-03-19T23:34:00.266Z,28.70
2018-03-19T23:36:27.724Z,29.15
2018-03-19T23:38:55.191Z,29.50
2018-03-19T23:41:22.643Z,28.35
2018-03-19T23:43:50.101Z,29.87
2018-03-19T23:46:17.549Z,28.35
2018-03-19T23:48:45.020Z,29.42
2018-03-19T23:51:12.469Z,34.30
2018-03-19T23:53:39.916Z,30.85
2018-03-19T23:56:07.383Z,29.10
2018-03-19T23:58:34.830Z,30.92
